This is the latest recevied weather packets stored in our database for station/object KC4JIR. If no packets are shown the sender has not sent any weather packets the latest 10 day(s).
| Time | Temp. | Humidity | Pressure | Rain* | Wind** | Luminosity | Snow |
|---|---|---|---|---|---|---|---|
| 1788190574 | 29.44° C | 79% | 1018.1 hPa | 0 mm | - | 359 W/m² | - |
| 1788190270 | 28.89° C | 82% | 1018.2 hPa | 0 mm | - | 498 W/m² | - |
| 1788189965 | 28.89° C | 82% | 1018 hPa | 0 mm | - | 109 W/m² | - |
| 1788189661 | 29.44° C | 80% | 1018.1 hPa | 0 mm | - | 204 W/m² | - |
| 1788189361 | 29.44° C | 82% | 1018.4 hPa | 0 mm | - | 964 W/m² | - |
| 1788189055 | 28.89° C | 82% | 1018.3 hPa | 0 mm | - | 941 W/m² | - |
| 1788188750 | 29.44° C | 81% | 1018.2 hPa | 0 mm | - | 347 W/m² | - |
| 1788188446 | 28.33° C | 86% | 1018.2 hPa | 0 mm | - | 810 W/m² | - |
| 1788188140 | 27.78° C | 87% | 1018.4 hPa | 0 mm | - | 266 W/m² | - |
| 1788187837 | 28.33° C | 85% | 1018.2 hPa | 0 mm | - | 278 W/m² | - |
| 1788187532 | 28.89° C | 85% | 1018.3 hPa | 0 mm | - | 792 W/m² | - |
| 1788187227 | 27.78° C | 87% | 1018.2 hPa | 0 mm | - | 805 W/m² | - |
| 1788186922 | 27.78° C | 88% | 1018.3 hPa | 0 mm | - | 642 W/m² | - |
| 1788186618 | 27.78° C | 89% | 1018.2 hPa | 0 mm | - | 133 W/m² | - |
| 1788186314 | 27.22° C | 89% | 1018.2 hPa | 0 mm | - | 354 W/m² | - |
| 1788186009 | 27.22° C | 92% | 1018.1 hPa | 0 mm | - | 388 W/m² | - |
| 1788185702 | 26.67° C | 91% | 1018.1 hPa | 0 mm | - | 135 W/m² | - |
| 1788185397 | 26.67° C | 93% | 1018.1 hPa | 0 mm | - | 96 W/m² | - |
| 1788185096 | 26.67° C | 95% | 1018.2 hPa | 0 mm | - | 100 W/m² | - |
| 1788184800 | 26.11° C | 95% | 1018.1 hPa | 0 mm | - | 71 W/m² | - |
| 1788184494 | 26.11° C | 95% | 1018.3 hPa | 0 mm | - | 94 W/m² | - |
| 1788184189 | 25.56° C | 95% | 1018.3 hPa | 0 mm | - | 64 W/m² | - |
| 1788183886 | 25.56° C | 96% | 1018.2 hPa | 0 mm | - | 69 W/m² | - |
| 1788183586 | 25.56° C | 97% | 1017.7 hPa | 0 mm | - | 39 W/m² | - |
| 1788183280 | 25° C | 98% | 1018.2 hPa | 0 mm | - | 38 W/m² | - |
* Rain latest hour (hover to see other rain measurements)
** Current wind speed in m/s (hover to see current wind gust speed)